Time;durP1;ratioP1;P1;durP2;ratioP2;P2;SDS_P1;SDS_P2;PMS_P1;PMS_P2;Temp;Humidity;BMP_temperature;BMP_pressure;BME280_temperature;BME280_humidity;BME280_pressure;Samples;Min_cycle;Max_cycle;Signal;HPM_P1;HPM_P2
2021/03/22 00:00:40;;;;;;;4.40;2.58;;;23.90;32.70;;;;;;5057654;28;45480;-51
2021/03/22 00:03:07;;;;;;;3.55;2.55;;;23.90;32.80;;;;;;5072930;28;46172;-50
2021/03/22 00:05:33;;;;;;;5.38;3.28;;;23.80;32.80;;;;;;5068754;28;45426;-51
2021/03/22 00:07:58;;;;;;;3.95;2.60;;;23.80;32.70;;;;;;5057051;28;45954;-51
2021/03/22 00:10:25;;;;;;;6.45;3.38;;;23.80;32.80;;;;;;5071075;28;45599;-50
2021/03/22 00:12:52;;;;;;;4.95;2.88;;;23.70;32.50;;;;;;5057879;28;46313;-51
2021/03/22 00:15:18;;;;;;;4.90;3.00;;;23.70;32.60;;;;;;5061557;28;45457;-50
2021/03/22 00:17:44;;;;;;;7.20;3.08;;;23.70;32.40;;;;;;5063475;28;45277;-50
2021/03/22 00:20:10;;;;;;;6.07;3.38;;;23.70;32.20;;;;;;5051852;28;45345;-50
2021/03/22 00:22:36;;;;;;;3.95;2.63;;;23.70;32.20;;;;;;5052038;28;45930;-50
2021/03/22 00:25:02;;;;;;;5.43;3.08;;;23.70;32.30;;;;;;5051906;28;45344;-51
2021/03/22 00:27:28;;;;;;;3.88;2.92;;;23.60;32.20;;;;;;5059517;28;45367;-51
2021/03/22 00:29:53;;;;;;;4.38;2.40;;;23.70;32.30;;;;;;5049100;28;45392;-51
2021/03/22 00:32:19;;;;;;;5.28;3.25;;;23.60;32.20;;;;;;5048468;28;46146;-51
2021/03/22 00:34:45;;;;;;;4.43;2.67;;;23.60;32.10;;;;;;5048393;28;45349;-51
2021/03/22 00:37:10;;;;;;;3.85;2.50;;;23.60;32.10;;;;;;5048562;28;45351;-51
2021/03/22 00:39:36;;;;;;;4.38;2.85;;;23.60;32.20;;;;;;5048978;28;45447;-51
2021/03/22 00:42:02;;;;;;;4.05;2.70;;;23.60;32.30;;;;;;5048209;28;46219;-51
2021/03/22 00:44:28;;;;;;;4.20;3.05;;;23.50;32.20;;;;;;5047039;28;45562;-51
2021/03/22 00:46:54;;;;;;;4.43;2.85;;;23.50;32.00;;;;;;5048304;28;45205;-51
2021/03/22 00:49:20;;;;;;;4.55;2.80;;;23.50;31.90;;;;;;5048830;28;45424;-51
2021/03/22 00:51:45;;;;;;;4.53;2.97;;;23.50;31.90;;;;;;5048015;28;47127;-51
2021/03/22 00:54:11;;;;;;;4.40;3.13;;;23.50;31.80;;;;;;5048147;28;45337;-51
2021/03/22 00:56:37;;;;;;;4.43;3.15;;;23.40;31.60;;;;;;5048178;28;45342;-51
2021/03/22 00:59:02;;;;;;;4.47;2.92;;;23.40;31.50;;;;;;5048319;28;45370;-51
2021/03/22 01:01:28;;;;;;;5.13;3.25;;;23.40;31.60;;;;;;5048077;28;46389;-51
2021/03/22 01:03:54;;;;;;;4.35;3.22;;;23.40;31.50;;;;;;5048258;28;45380;-51
2021/03/22 01:06:19;;;;;;;4.55;3.42;;;23.40;31.40;;;;;;5048241;28;45313;-51
2021/03/22 01:08:45;;;;;;;4.75;3.15;;;23.40;31.40;;;;;;5048460;28;45348;-51
2021/03/22 01:11:12;;;;;;;5.25;2.85;;;23.40;31.40;;;;;;5047939;28;45378;-51
2021/03/22 01:13:55;;;;;;;4.00;2.88;;;23.30;31.40;;;;;;5047868;28;45236;-51
2021/03/22 01:16:34;;;;;;;4.60;3.17;;;23.30;31.90;;;;;;5049030;28;45273;-51
2021/03/22 01:19:02;;;;;;;4.30;3.00;;;23.30;31.50;;;;;;5065412;28;45495;-51
2021/03/22 01:21:30;;;;;;;4.05;2.95;;;23.30;31.40;;;;;;5063715;28;47140;-51
2021/03/22 01:23:56;;;;;;;6.55;3.40;;;23.20;31.30;;;;;;5048974;28;45285;-51
2021/03/22 01:26:23;;;;;;;3.92;2.92;;;23.20;31.30;;;;;;5047895;28;45358;-51
2021/03/22 01:28:49;;;;;;;4.57;3.17;;;23.20;31.30;;;;;;5048176;28;45208;-51
2021/03/22 01:31:16;;;;;;;4.45;3.45;;;23.20;31.20;;;;;;5044597;28;46922;-51
2021/03/22 01:33:43;;;;;;;4.70;3.22;;;23.20;31.30;;;;;;5051245;28;45272;-51
2021/03/22 01:36:12;;;;;;;4.53;3.25;;;23.20;31.30;;;;;;5048451;28;45431;-51
2021/03/22 01:38:38;;;;;;;4.75;3.22;;;23.20;31.30;;;;;;5047675;28;45245;-51
2021/03/22 01:41:13;;;;;;;3.85;3.05;;;23.20;31.50;;;;;;5046948;28;46257;-51
2021/03/22 01:43:49;;;;;;;4.88;3.38;;;23.10;31.30;;;;;;5060662;28;45260;-51
2021/03/22 01:46:14;;;;;;;4.68;3.47;;;23.10;31.30;;;;;;5067756;28;45286;-51
2021/03/22 01:48:40;;;;;;;4.18;2.72;;;23.20;31.40;;;;;;5050983;28;45300;-51
2021/03/22 01:51:05;;;;;;;4.32;2.88;;;23.10;31.40;;;;;;5050845;28;45431;-51
2021/03/22 01:53:32;;;;;;;5.40;3.28;;;23.20;31.40;;;;;;5067435;28;45247;-51
2021/03/22 01:56:27;;;;;;;4.50;2.70;;;23.10;31.30;;;;;;5030295;28;45485;-51
2021/03/22 01:58:53;;;;;;;4.15;3.08;;;23.10;31.30;;;;;;5048926;28;45455;-51
2021/03/22 02:01:20;;;;;;;3.75;2.90;;;23.10;31.50;;;;;;5030468;28;45372;-51
2021/03/22 02:03:45;;;;;;;4.30;3.10;;;23.10;31.40;;;;;;5048221;28;45244;-51
2021/03/22 02:06:11;;;;;;;4.95;2.97;;;23.10;31.40;;;;;;5030479;28;45380;-51
2021/03/22 02:08:38;;;;;;;4.53;2.95;;;23.10;31.20;;;;;;5030941;28;45445;-50
2021/03/22 02:11:16;;;;;;;3.92;2.67;;;23.00;31.80;;;;;;5029928;28;45988;-50
2021/03/22 02:13:42;;;;;;;5.38;3.40;;;23.00;31.20;;;;;;5046413;28;45394;-50
2021/03/22 02:16:17;;;;;;;5.78;3.42;;;23.00;30.90;;;;;;5030406;28;45300;-51
2021/03/22 02:18:59;;;;;;;4.82;3.30;;;23.00;30.70;;;;;;5030749;28;45526;-51
2021/03/22 02:21:36;;;;;;;4.85;3.95;;;23.00;30.60;;;;;;5055912;28;45287;-50
2021/03/22 02:24:33;;;;;;;4.97;3.42;;;23.00;30.60;;;;;;5048024;28;45113;-51
2021/03/22 02:27:27;;;;;;;5.63;4.20;;;23.00;30.40;;;;;;5052735;28;45505;-55
2021/03/22 02:29:58;;;;;;;4.65;3.28;;;23.00;30.40;;;;;;5047367;28;45154;-52
2021/03/22 02:32:36;;;;;;;5.65;3.45;;;22.90;30.40;;;;;;5055535;28;46526;-50
2021/03/22 02:35:28;;;;;;;3.95;2.65;;;22.90;30.30;;;;;;5067661;28;45277;-54
2021/03/22 02:37:58;;;;;;;4.30;2.88;;;22.90;30.10;;;;;;5067019;28;45356;-57
2021/03/22 02:40:58;;;;;;;5.65;4.15;;;22.90;30.50;;;;;;5050955;28;45390;-51
2021/03/22 02:43:24;;;;;;;5.03;3.22;;;22.90;30.10;;;;;;5066542;28;46215;-51
2021/03/22 02:45:53;;;;;;;4.38;2.78;;;22.90;30.30;;;;;;5049829;28;45350;-51
2021/03/22 02:48:22;;;;;;;4.30;3.17;;;22.90;30.40;;;;;;5066510;28;45414;-51
2021/03/22 02:50:48;;;;;;;3.67;2.63;;;22.90;31.50;;;;;;5067149;28;45285;-51
2021/03/22 02:53:36;;;;;;;3.38;2.00;;;22.90;31.70;;;;;;5049365;28;47125;-51
2021/03/22 02:56:35;;;;;;;3.80;2.38;;;22.90;31.80;;;;;;5066630;28;45319;-51
2021/03/22 02:59:12;;;;;;;3.72;2.10;;;22.90;31.90;;;;;;5067457;28;45318;-50
2021/03/22 03:01:52;;;;;;;4.13;1.70;;;22.90;32.00;;;;;;5050595;28;45466;-51
2021/03/22 03:04:17;;;;;;;4.03;2.08;;;22.90;32.10;;;;;;5050017;28;47370;-50
2021/03/22 03:07:00;;;;;;;3.90;2.20;;;22.90;32.10;;;;;;5049495;28;45421;-51
2021/03/22 03:09:28;;;;;;;4.13;2.25;;;22.90;32.30;;;;;;5049091;28;45291;-50
2021/03/22 03:11:54;;;;;;;3.60;2.03;;;22.90;32.40;;;;;;5066742;28;45504;-51
2021/03/22 03:14:20;;;;;;;5.20;2.00;;;23.00;32.60;;;;;;5066159;28;45313;-51
2021/03/22 03:16:46;;;;;;;2.95;1.70;;;23.00;32.90;;;;;;5049460;28;45451;-51
2021/03/22 03:19:11;;;;;;;3.50;2.10;;;23.00;33.10;;;;;;5029578;28;45550;-51
2021/03/22 03:21:37;;;;;;;3.83;2.08;;;23.00;33.20;;;;;;5034478;28;45341;-50
2021/03/22 03:24:05;;;;;;;3.35;1.80;;;23.10;33.30;;;;;;5049076;28;46004;-50
2021/03/22 03:26:31;;;;;;;4.05;2.08;;;23.10;33.40;;;;;;5064536;28;45334;-51
2021/03/22 03:28:56;;;;;;;3.20;1.60;;;23.10;33.50;;;;;;5046087;28;45344;-51
2021/03/22 03:31:22;;;;;;;3.13;1.80;;;23.10;33.40;;;;;;5062620;28;45628;-50
2021/03/22 03:33:48;;;;;;;3.50;1.83;;;23.10;33.40;;;;;;5047237;28;46856;-51
2021/03/22 03:36:13;;;;;;;3.88;2.00;;;23.20;33.40;;;;;;5049445;28;45348;-51
2021/03/22 03:38:39;;;;;;;3.35;1.70;;;23.20;33.50;;;;;;5025427;28;45268;-51
2021/03/22 03:41:04;;;;;;;3.00;1.75;;;23.20;33.50;;;;;;5046185;28;45292;-51
2021/03/22 03:43:30;;;;;;;2.67;1.40;;;23.20;33.60;;;;;;5057695;28;45335;-51
2021/03/22 03:45:56;;;;;;;2.75;1.50;;;23.20;33.60;;;;;;5032429;28;45871;-51
2021/03/22 03:48:23;;;;;;;2.95;1.80;;;23.20;33.60;;;;;;5048885;28;45402;-51
2021/03/22 03:50:51;;;;;;;2.92;1.85;;;23.30;33.60;;;;;;5067589;28;45551;-51
2021/03/22 03:53:17;;;;;;;2.90;1.60;;;23.30;33.70;;;;;;5065373;28;46300;-51
2021/03/22 03:55:42;;;;;;;3.72;2.10;;;23.40;33.80;;;;;;5048837;28;45316;-51
2021/03/22 03:58:08;;;;;;;2.95;1.60;;;23.40;33.90;;;;;;5048610;28;45244;-52
2021/03/22 04:00:41;;;;;;;3.00;1.40;;;23.40;33.90;;;;;;5049484;28;45407;-51
2021/03/22 04:03:26;;;;;;;3.22;1.58;;;23.40;33.90;;;;;;5066463;28;46158;-51
2021/03/22 04:05:58;;;;;;;2.78;1.65;;;23.40;34.00;;;;;;5066982;28;45341;-51
2021/03/22 04:08:25;;;;;;;2.88;1.80;;;23.50;33.90;;;;;;5066908;28;45415;-50
2021/03/22 04:10:51;;;;;;;2.50;1.40;;;23.50;33.90;;;;;;5049276;28;45324;-51
2021/03/22 04:13:17;;;;;;;2.35;1.50;;;23.50;33.90;;;;;;5048474;28;46623;-51
2021/03/22 04:15:43;;;;;;;2.63;1.60;;;23.50;34.00;;;;;;5048810;28;45192;-51
2021/03/22 04:18:08;;;;;;;2.38;1.30;;;23.50;34.00;;;;;;5054387;28;45621;-51
2021/03/22 04:20:34;;;;;;;2.72;1.48;;;23.50;34.00;;;;;;5048350;28;45556;-50
2021/03/22 04:23:00;;;;;;;2.78;1.50;;;23.60;34.10;;;;;;5047450;28;45396;-50
2021/03/22 04:25:25;;;;;;;2.65;1.60;;;23.60;34.10;;;;;;5048574;28;45348;-51
2021/03/22 04:27:51;;;;;;;2.85;1.50;;;23.60;34.10;;;;;;5060506;28;45547;-50
2021/03/22 04:30:17;;;;;;;2.42;1.60;;;23.60;34.10;;;;;;5068793;28;45409;-51
2021/03/22 04:32:43;;;;;;;2.85;1.55;;;23.60;34.10;;;;;;5051979;28;47059;-50
2021/03/22 04:35:09;;;;;;;3.03;1.70;;;23.70;34.10;;;;;;5024115;28;45220;-51
2021/03/22 04:37:35;;;;;;;3.00;1.65;;;23.70;34.20;;;;;;5031694;28;45309;-50
2021/03/22 04:40:00;;;;;;;3.35;1.60;;;23.70;34.20;;;;;;5032209;28;45311;-51
2021/03/22 04:42:26;;;;;;;3.63;1.95;;;23.70;34.20;;;;;;5031352;28;46022;-51
2021/03/22 04:44:52;;;;;;;3.65;2.15;;;23.70;34.20;;;;;;5048367;28;45245;-51
2021/03/22 04:47:17;;;;;;;3.40;1.80;;;23.70;34.10;;;;;;5048337;28;45411;-50
2021/03/22 04:49:43;;;;;;;2.60;1.63;;;23.70;34.10;;;;;;5048839;28;45557;-51
2021/03/22 04:52:09;;;;;;;3.40;1.80;;;23.70;34.20;;;;;;5047923;28;46216;-51
2021/03/22 04:54:34;;;;;;;3.03;2.00;;;23.70;34.20;;;;;;5048224;28;45314;-51
2021/03/22 04:57:33;;;;;;;3.88;1.73;;;23.70;34.30;;;;;;5047936;28;45372;-50
2021/03/22 04:59:58;;;;;;;2.80;1.88;;;23.70;34.20;;;;;;5058601;28;45466;-51
2021/03/22 05:02:24;;;;;;;3.13;1.90;;;23.70;34.30;;;;;;5067634;28;46104;-50
2021/03/22 05:04:50;;;;;;;3.08;1.67;;;23.70;34.30;;;;;;5051454;28;45459;-52
2021/03/22 05:07:16;;;;;;;3.33;2.00;;;23.80;34.30;;;;;;5051604;28;45346;-50
2021/03/22 05:09:41;;;;;;;4.32;1.63;;;23.70;34.10;;;;;;5068410;28;45236;-50
2021/03/22 05:12:08;;;;;;;3.10;1.60;;;23.80;34.20;;;;;;5051249;28;45533;-50
2021/03/22 05:14:34;;;;;;;3.60;1.95;;;23.80;34.20;;;;;;5050930;28;45354;-49
2021/03/22 05:16:59;;;;;;;3.20;1.60;;;23.80;34.20;;;;;;5049453;28;45520;-49
2021/03/22 05:19:25;;;;;;;3.30;2.00;;;23.80;34.30;;;;;;5048251;28;45561;-50
2021/03/22 05:21:51;;;;;;;2.65;1.42;;;23.80;34.30;;;;;;5047498;28;46274;-50
2021/03/22 05:24:16;;;;;;;3.35;1.85;;;23.90;34.30;;;;;;5047207;28;45372;-50
2021/03/22 05:26:42;;;;;;;3.20;1.80;;;23.90;34.30;;;;;;5050216;28;45476;-51
2021/03/22 05:29:08;;;;;;;3.17;1.80;;;23.90;34.30;;;;;;5051529;28;45525;-51
2021/03/22 05:31:34;;;;;;;3.47;1.95;;;23.90;35.00;;;;;;5048745;28;45359;-51
2021/03/22 05:34:00;;;;;;;3.42;2.13;;;23.90;34.40;;;;;;5051177;28;45299;-51
2021/03/22 05:36:25;;;;;;;3.55;1.90;;;23.90;34.30;;;;;;5050651;28;45433;-54
2021/03/22 05:38:51;;;;;;;3.58;2.13;;;23.90;34.30;;;;;;5039971;28;45621;-52
2021/03/22 05:41:18;;;;;;;3.47;1.80;;;23.90;34.30;;;;;;5056552;28;46954;-50
2021/03/22 05:43:50;;;;;;;3.17;2.03;;;23.90;34.40;;;;;;5038397;28;45718;-50
2021/03/22 05:46:56;;;;;;;2.90;1.50;;;23.90;34.50;;;;;;5057274;28;45461;-50
2021/03/22 05:49:52;;;;;;;3.60;2.08;;;24.00;34.50;;;;;;5056234;28;45568;-50
2021/03/22 05:52:18;;;;;;;;;;;24.00;34.60;;;;;;5058593;28;46312;-50
2021/03/22 05:55:10;;;;;;;3.80;2.10;;;24.00;34.60;;;;;;5056031;28;45364;-50
2021/03/22 05:57:40;;;;;;;2.97;1.65;;;24.10;34.60;;;;;;5056152;28;45524;-50
2021/03/22 06:00:21;;;;;;;4.18;1.85;;;24.10;34.60;;;;;;5058404;28;45366;-50
2021/03/22 06:03:08;;;;;;;3.45;1.88;;;24.10;34.60;;;;;;5056723;28;46928;-51
2021/03/22 06:05:39;;;;;;;2.53;1.48;;;24.10;34.60;;;;;;5054817;28;45580;-50
2021/03/22 06:08:43;;;;;;;3.08;1.80;;;24.10;34.60;;;;;;5063684;28;45384;-50
2021/03/22 06:11:30;;;;;;;3.58;1.63;;;24.20;34.70;;;;;;5066045;28;45530;-50
2021/03/22 06:14:21;;;;;;;2.95;1.75;;;24.20;34.90;;;;;;5065831;28;47123;-51
2021/03/22 06:16:49;;;;;;;4.63;2.03;;;24.30;35.20;;;;;;5058611;28;45457;-51
2021/03/22 06:19:15;;;;;;;3.30;2.08;;;24.30;35.00;;;;;;5043000;28;45335;-51
2021/03/22 06:21:45;;;;;;;3.55;1.88;;;24.30;34.90;;;;;;5050588;28;45455;-51
2021/03/22 06:24:22;;;;;;;3.28;2.08;;;24.30;35.00;;;;;;5039814;28;45368;-50
2021/03/22 06:26:51;;;;;;;3.67;1.90;;;24.30;34.90;;;;;;5059206;28;45262;-51
2021/03/22 06:29:25;;;;;;;2.97;2.03;;;24.30;34.90;;;;;;5046415;28;45308;-51
2021/03/22 06:31:53;;;;;;;3.80;1.92;;;24.40;34.90;;;;;;5048292;28;45262;-50
2021/03/22 06:34:49;;;;;;;2.80;1.80;;;24.40;34.90;;;;;;5062244;28;45374;-51
2021/03/22 06:37:16;;;;;;;3.35;1.98;;;24.40;34.90;;;;;;5057071;28;45319;-51
2021/03/22 06:39:43;;;;;;;3.42;1.77;;;24.40;34.90;;;;;;5048331;28;45437;-51
2021/03/22 06:42:17;;;;;;;2.80;1.63;;;24.40;34.80;;;;;;5044839;28;45463;-50
2021/03/22 06:44:43;;;;;;;3.22;2.00;;;24.40;34.80;;;;;;5055264;28;46343;-52
2021/03/22 06:47:11;;;;;;;3.75;2.10;;;24.40;34.80;;;;;;5031611;28;45329;-52
2021/03/22 06:49:39;;;;;;;3.63;1.85;;;24.40;34.80;;;;;;5049863;28;45368;-51
2021/03/22 06:52:04;;;;;;;3.53;1.70;;;24.40;34.80;;;;;;5028393;28;45264;-51
2021/03/22 06:54:36;;;;;;;4.65;1.95;;;24.40;34.80;;;;;;5045101;28;45458;-51
2021/03/22 06:57:08;;;;;;;3.65;2.28;;;24.50;34.80;;;;;;5044701;28;45280;-50
2021/03/22 06:59:34;;;;;;;4.15;1.80;;;24.50;34.80;;;;;;5045245;28;45289;-50
2021/03/22 07:02:12;;;;;;;3.53;1.83;;;24.50;34.80;;;;;;5032257;28;45435;-51
2021/03/22 07:04:38;;;;;;;3.63;1.77;;;24.50;34.80;;;;;;5044920;28;46057;-52
2021/03/22 07:07:23;;;;;;;3.85;2.30;;;24.50;34.80;;;;;;5028675;28;45401;-54
2021/03/22 07:09:55;;;;;;;;;;;24.50;34.00;;;;;;5029038;28;45492;-54
2021/03/22 07:12:22;;;;;;;5.13;3.88;;;24.30;31.30;;;;;;5045804;28;45603;-59
2021/03/22 07:14:47;;;;;;;4.75;3.00;;;24.30;32.20;;;;;;5038126;28;47166;-60
2021/03/22 07:17:19;;;;;;;4.43;2.58;;;24.40;33.10;;;;;;5041896;28;45832;-55
2021/03/22 07:20:03;;;;;;;7.10;3.13;;;24.50;33.40;;;;;;5044939;28;45737;-56
2021/03/22 07:22:29;;;;;;;4.35;2.67;;;24.60;33.40;;;;;;5045684;28;45596;-55
2021/03/22 07:25:03;;;;;;;4.35;2.65;;;24.60;33.60;;;;;;5035661;28;46020;-57
2021/03/22 07:27:33;;;;;;;3.87;2.10;;;24.70;33.70;;;;;;5067422;28;45469;-56
2021/03/22 07:30:19;;;;;;;7.68;2.92;;;24.80;33.60;;;;;;5069360;28;45404;-57
2021/03/22 07:32:51;;;;;;;4.43;2.17;;;24.80;33.80;;;;;;5051961;28;45673;-65
2021/03/22 07:35:38;;;;;;;4.35;2.33;;;24.90;33.70;;;;;;5052678;28;45445;-61
2021/03/22 07:38:31;;;;;;;6.68;2.47;;;24.90;33.90;;;;;;5050954;28;45467;-73
2021/03/22 07:40:59;;;;;;;3.85;1.85;;;24.90;33.90;;;;;;5050757;28;45493;-67
2021/03/22 07:44:11;;;;;;;5.97;2.60;;;25.00;33.90;;;;;;5040103;28;45401;-59
2021/03/22 07:46:42;;;;;;;5.03;2.33;;;25.10;34.20;;;;;;5042211;28;46149;-64
2021/03/22 07:49:30;;;;;;;5.85;2.33;;;25.20;34.40;;;;;;5066145;28;45681;-60
2021/03/22 07:52:24;;;;;;;3.60;2.15;;;25.20;34.70;;;;;;5068814;28;45241;-70
2021/03/22 07:54:57;;;;;;;3.28;1.73;;;25.30;34.90;;;;;;5049776;28;45355;-58
2021/03/22 07:57:44;;;;;;;3.95;1.95;;;25.40;34.90;;;;;;5057740;28;47197;-53
2021/03/22 08:00:27;;;;;;;4.03;2.10;;;25.40;35.00;;;;;;5075869;28;45698;-67
2021/03/22 08:02:55;;;;;;;5.35;2.20;;;25.50;34.90;;;;;;5063722;28;45481;-68
2021/03/22 08:05:29;;;;;;;3.20;1.88;;;25.50;34.80;;;;;;5078853;28;45499;-65
2021/03/22 08:08:28;;;;;;;6.80;3.63;;;25.50;34.80;;;;;;5051419;28;47057;-61
2021/03/22 08:11:18;;;;;;;11.68;4.13;;;25.50;34.30;;;;;;5073746;28;46043;-74
2021/03/22 08:14:05;;;;;;;5.22;3.03;;;25.50;34.00;;;;;;5074579;28;45618;-71
2021/03/22 08:16:55;;;;;;;7.20;3.38;;;25.50;34.50;;;;;;5059403;28;45613;-66
2021/03/22 08:19:29;;;;;;;9.80;3.13;;;25.60;34.80;;;;;;5056537;28;47083;-61
2021/03/22 08:22:00;;;;;;;10.23;2.80;;;25.60;34.80;;;;;;5068132;28;46517;-57
2021/03/22 08:24:34;;;;;;;6.78;3.03;;;25.60;34.70;;;;;;5071039;28;45718;-55
2021/03/22 08:27:05;;;;;;;7.07;2.50;;;25.60;34.70;;;;;;5064196;28;45686;-59
2021/03/22 08:29:35;;;;;;;8.68;2.90;;;25.60;34.70;;;;;;5066652;28;46445;-64
2021/03/22 08:32:12;;;;;;;6.03;2.47;;;25.70;35.00;;;;;;5069182;28;45429;-62
2021/03/22 08:34:41;;;;;;;9.60;3.10;;;25.80;35.40;;;;;;5073778;28;45349;-63
2021/03/22 08:37:20;;;;;;;8.50;2.30;;;25.80;35.00;;;;;;5054668;28;45636;-65
2021/03/22 08:39:58;;;;;;;6.93;2.40;;;25.90;35.00;;;;;;5070753;27;46257;-64
2021/03/22 08:42:32;;;;;;;5.72;2.38;;;25.90;35.00;;;;;;5064738;28;45550;-66
2021/03/22 08:45:30;;;;;;;6.45;2.97;;;26.00;35.00;;;;;;5054937;28;45442;-67
2021/03/22 08:48:05;;;;;;;6.72;2.80;;;26.00;35.00;;;;;;5071644;28;45605;-63
2021/03/22 08:50:33;;;;;;;;;;;26.10;35.00;;;;;;5074040;28;46281;-67
2021/03/22 08:53:02;;;;;;;5.35;2.92;;;26.00;34.80;;;;;;5078186;28;45593;-67
2021/03/22 08:56:01;;;;;;;5.68;2.50;;;26.10;34.70;;;;;;5073963;28;45513;-64
2021/03/22 08:58:40;;;;;;;5.03;2.15;;;26.10;34.20;;;;;;5065124;28;45582;-64
2021/03/22 09:01:09;;;;;;;4.38;2.28;;;26.20;34.50;;;;;;5064933;28;46391;-57
2021/03/22 09:03:39;;;;;;;4.95;2.25;;;26.10;34.50;;;;;;5066199;28;45662;-62
2021/03/22 09:06:17;;;;;;;9.10;2.97;;;26.20;34.60;;;;;;5045461;28;45745;-60
2021/03/22 09:08:53;;;;;;;3.95;2.10;;;26.30;34.70;;;;;;5074003;28;45366;-65
2021/03/22 09:11:25;;;;;;;7.72;3.55;;;26.30;34.70;;;;;;5072731;28;47146;-63
2021/03/22 09:14:10;;;;;;;5.28;2.55;;;26.30;34.80;;;;;;5071473;27;45375;-71
2021/03/22 09:16:37;;;;;;;4.53;2.22;;;26.30;34.80;;;;;;5070747;28;45647;-62
2021/03/22 09:19:12;;;;;;;4.47;2.25;;;26.30;34.90;;;;;;5070807;28;45599;-61
2021/03/22 09:21:46;;;;;;;5.13;2.15;;;26.40;34.90;;;;;;5072969;28;45680;-64
2021/03/22 09:24:37;;;;;;;5.25;2.42;;;26.40;35.00;;;;;;5066578;28;45394;-66
2021/03/22 09:27:21;;;;;;;8.98;2.53;;;26.40;35.00;;;;;;5070412;28;45498;-62
2021/03/22 09:29:56;;;;;;;10.30;2.92;;;26.40;35.20;;;;;;5077202;28;45415;-57
2021/03/22 09:32:26;;;;;;;4.30;2.30;;;26.40;35.00;;;;;;5067945;28;46541;-65
2021/03/22 09:34:51;;;;;;;4.00;2.10;;;26.40;35.00;;;;;;5087429;28;45266;-65
2021/03/22 09:37:52;;;;;;;4.85;2.40;;;26.40;35.00;;;;;;5068607;27;45442;-63
2021/03/22 09:40:21;;;;;;;5.63;1.70;;;26.40;35.00;;;;;;5065229;28;46305;-70
2021/03/22 09:43:12;;;;;;;4.60;2.03;;;26.40;34.90;;;;;;5078993;28;45603;-73
2021/03/22 09:45:39;;;;;;;4.47;2.40;;;26.40;34.90;;;;;;5077373;28;45484;-72
2021/03/22 09:48:16;;;;;;;5.05;1.85;;;26.40;34.90;;;;;;5075405;28;45448;-68
2021/03/22 09:50:47;;;;;;;4.78;2.30;;;26.40;34.80;;;;;;5071472;28;45465;-73
2021/03/22 09:53:23;;;;;;;5.30;2.70;;;26.40;34.80;;;;;;5077603;28;45441;-71
2021/03/22 09:55:49;;;;;;;5.05;2.25;;;26.40;34.80;;;;;;5067936;28;45565;-71
2021/03/22 09:58:18;;;;;;;6.43;2.70;;;26.50;34.80;;;;;;5067357;28;45435;-70
2021/03/22 10:00:56;;;;;;;9.50;2.22;;;26.40;34.70;;;;;;5069091;28;45869;-69
2021/03/22 10:03:30;;;;;;;5.43;2.10;;;26.50;34.70;;;;;;5067824;28;46497;-68
2021/03/22 10:05:58;;;;;;;4.55;2.53;;;26.50;34.60;;;;;;5060824;28;45756;-68
2021/03/22 10:08:34;;;;;;;5.25;2.25;;;26.40;34.60;;;;;;5064475;28;45808;-66
2021/03/22 10:11:09;;;;;;;3.40;1.63;;;26.50;34.60;;;;;;5051386;28;45337;-68
2021/03/22 10:13:40;;;;;;;5.43;2.20;;;26.50;34.70;;;;;;5063009;28;46217;-74
2021/03/22 10:16:17;;;;;;;5.28;2.58;;;26.50;34.60;;;;;;5041604;28;45483;-71
2021/03/22 10:18:47;;;;;;;4.53;1.90;;;26.50;34.60;;;;;;5066584;28;45513;-72
2021/03/22 10:21:13;;;;;;;5.07;2.38;;;26.50;34.60;;;;;;5069039;28;45449;-74
2021/03/22 10:24:19;;;;;;;5.47;2.22;;;26.50;34.60;;;;;;5070597;28;46374;-63
2021/03/22 10:26:47;;;;;;;4.10;1.92;;;26.50;34.70;;;;;;5061421;28;45668;-73
2021/03/22 10:29:20;;;;;;;3.75;1.90;;;26.50;34.70;;;;;;5063677;28;45521;-70
2021/03/22 10:31:48;;;;;;;5.80;2.00;;;26.50;34.60;;;;;;5069376;28;45877;-71
2021/03/22 10:34:22;;;;;;;7.55;1.80;;;26.60;34.70;;;;;;5068510;28;46306;-59
2021/03/22 10:36:47;;;;;;;4.22;1.92;;;26.60;34.70;;;;;;5040935;28;45517;-61
2021/03/22 10:39:40;;;;;;;16.55;4.20;;;26.60;35.20;;;;;;5034863;28;45667;-61
2021/03/22 10:42:27;;;;;;;60.05;19.20;;;26.60;34.80;;;;;;5004306;28;45495;-61
2021/03/22 10:44:55;;;;;;;69.53;22.33;;;26.50;35.10;;;;;;5016599;28;45550;-61
2021/03/22 10:47:22;;;;;;;84.80;27.17;;;26.50;35.10;;;;;;5036108;28;45648;-61
2021/03/22 10:49:49;;;;;;;91.97;30.50;;;26.40;35.20;;;;;;5028231;28;45500;-61
2021/03/22 10:52:19;;;;;;;87.75;27.05;;;26.40;35.30;;;;;;5024551;28;45414;-61
2021/03/22 10:54:46;;;;;;;87.07;26.77;;;26.40;35.30;;;;;;5043682;28;47237;-61
2021/03/22 10:57:34;;;;;;;95.20;28.42;;;26.40;35.30;;;;;;5042576;28;45812;-61
2021/03/22 11:00:32;;;;;;;75.72;23.15;;;26.40;35.30;;;;;;5028867;28;45482;-61
2021/03/22 11:02:58;;;;;;;74.97;24.17;;;26.30;35.30;;;;;;5043708;28;45735;-61
2021/03/22 11:05:41;;;;;;;55.58;23.40;;;26.30;35.30;;;;;;5011039;28;47192;-61
2021/03/22 11:08:26;;;;;;;68.10;24.55;;;26.20;35.20;;;;;;5029213;28;45505;-60
2021/03/22 11:11:08;;;;;;;77.80;24.52;;;26.20;35.30;;;;;;5058771;28;45371;-59
2021/03/22 11:13:36;;;;;;;55.70;21.42;;;26.30;35.60;;;;;;5047334;28;45518;-59
2021/03/22 11:16:04;;;;;;;66.22;23.15;;;26.20;35.20;;;;;;5028827;28;46208;-58
2021/03/22 11:18:29;;;;;;;83.47;27.10;;;26.30;35.30;;;;;;5047093;28;45297;-60
2021/03/22 11:20:55;;;;;;;69.03;26.00;;;26.30;35.20;;;;;;5045705;28;45353;-59
2021/03/22 11:23:30;;;;;;;63.60;23.33;;;26.30;35.60;;;;;;5050225;28;45534;-60
2021/03/22 11:26:17;;;;;;;57.83;21.88;;;26.30;34.90;;;;;;5069965;28;46245;-60
2021/03/22 11:28:43;;;;;;;57.88;21.40;;;26.40;34.90;;;;;;5082236;28;45432;-58
2021/03/22 11:31:23;;;;;;;59.50;21.92;;;26.30;34.80;;;;;;5045694;28;45566;-58
2021/03/22 11:34:05;;;;;;;63.08;20.73;;;26.30;34.70;;;;;;5067236;28;45435;-62
2021/03/22 11:36:40;;;;;;;59.55;20.90;;;26.40;34.70;;;;;;5048561;28;46282;-63
2021/03/22 11:39:10;;;;;;;51.63;19.80;;;26.40;34.70;;;;;;5046239;28;45371;-60
2021/03/22 11:41:44;;;;;;;52.45;18.95;;;26.30;34.60;;;;;;5068031;28;45582;-59
2021/03/22 11:44:24;;;;;;;52.37;20.43;;;26.40;34.70;;;;;;5049076;28;45592;-59
2021/03/22 11:46:51;;;;;;;46.40;19.05;;;26.30;34.60;;;;;;5061907;28;46343;-60
2021/03/22 11:49:37;;;;;;;73.13;25.65;;;26.30;34.70;;;;;;5047313;28;45413;-61
2021/03/22 11:52:03;;;;;;;52.42;21.60;;;26.30;35.00;;;;;;5066666;27;45453;-61
2021/03/22 11:54:31;;;;;;;60.85;22.42;;;26.30;34.90;;;;;;5063583;28;45403;-63
2021/03/22 11:57:02;;;;;;;58.92;22.10;;;26.30;34.90;;;;;;5066652;28;46307;-61
2021/03/22 11:59:28;;;;;;;56.55;21.00;;;26.20;34.80;;;;;;5072572;27;45441;-65
2021/03/22 12:02:04;;;;;;;56.05;20.67;;;26.20;34.90;;;;;;5064134;28;45455;-66
2021/03/22 12:04:30;;;;;;;48.92;19.63;;;26.20;34.80;;;;;;5079376;27;45515;-62
2021/03/22 12:07:06;;;;;;;48.33;17.90;;;26.10;34.80;;;;;;5066252;28;46112;-63
2021/03/22 12:09:32;;;;;;;41.78;17.65;;;26.10;34.80;;;;;;5064569;28;45471;-59
2021/03/22 12:11:58;;;;;;;43.22;16.98;;;26.10;34.90;;;;;;5046606;28;45489;-62
2021/03/22 12:14:24;;;;;;;44.33;18.38;;;26.00;34.80;;;;;;5065126;28;45616;-64
2021/03/22 12:16:54;;;;;;;42.42;17.23;;;26.00;34.80;;;;;;5049218;28;47314;-61
2021/03/22 12:19:22;;;;;;;53.28;19.13;;;26.00;34.90;;;;;;5029275;28;45769;-57
2021/03/22 12:21:49;;;;;;;74.55;29.15;;;26.00;35.00;;;;;;5045445;28;45477;-59
2021/03/22 12:24:15;;;;;;;60.20;24.85;;;26.00;35.60;;;;;;5061092;28;45803;-56
2021/03/22 12:26:41;;;;;;;56.53;21.88;;;26.00;35.40;;;;;;5068777;28;45583;-60
2021/03/22 12:29:07;;;;;;;55.35;20.42;;;26.00;35.30;;;;;;5049602;28;45545;-59
2021/03/22 12:31:38;;;;;;;52.15;20.40;;;26.10;35.40;;;;;;5056566;28;45434;-58
2021/03/22 12:34:06;;;;;;;46.15;21.42;;;26.10;35.30;;;;;;5083701;28;45544;-62
2021/03/22 12:36:34;;;;;;;43.35;19.27;;;26.20;35.30;;;;;;5064840;28;47059;-58
2021/03/22 12:39:00;;;;;;;58.83;20.92;;;26.20;35.30;;;;;;5046211;28;45416;-60
2021/03/22 12:41:31;;;;;;;44.30;20.40;;;26.20;35.20;;;;;;5051442;28;45799;-63
2021/03/22 12:43:57;;;;;;;44.28;19.63;;;26.30;35.20;;;;;;5080270;28;45322;-64
2021/03/22 12:46:23;;;;;;;43.85;18.55;;;26.30;35.10;;;;;;5047741;28;45811;-62
2021/03/22 12:48:49;;;;;;;52.35;20.58;;;26.30;35.10;;;;;;5047414;28;45395;-61
2021/03/22 12:51:14;;;;;;;48.47;19.17;;;26.30;35.20;;;;;;5066018;28;45445;-60
2021/03/22 12:53:40;;;;;;;48.20;19.17;;;26.30;35.20;;;;;;5057039;28;45339;-60
2021/03/22 12:56:06;;;;;;;50.25;20.42;;;26.30;35.10;;;;;;5049083;28;45453;-62
2021/03/22 12:58:31;;;;;;;46.05;19.27;;;26.30;35.10;;;;;;5048273;28;45573;-69
2021/03/22 13:00:57;;;;;;;44.08;17.80;;;26.30;34.80;;;;;;5066391;28;45643;-68
2021/03/22 13:03:25;;;;;;;31.05;14.20;;;26.30;33.40;;;;;;5049815;28;45502;-68
2021/03/22 13:05:53;;;;;;;33.42;14.80;;;26.20;32.30;;;;;;5065344;28;45463;-67
2021/03/22 13:08:19;;;;;;;31.27;12.18;;;26.20;31.60;;;;;;5057688;28;45547;-61